Eppley Airfield
KOMA : now visible

Airfield :











YOU CAN JOIN US ON...

 
LOGIN :

Register | Disclaimer

   EN    FR    IT 

 









Legend :    VFR   Marginal VFR   IFR   Intensive IFR   Very Intensive IFR
Visi :
Ceiling :
>= 8 km
>= 3000ft
5 to 8 km
1000 to 3000 ft
1500m to 5 km
500 to 1000 ft
800 to 1500m
200 to 500 ft
< 800m
< 200 ft
Symbols :   Thunderstorms  Fog  Heavy snow  Heavy precipitations  Wind > 20 kt






- Airport Elevation : 984 ft
- IATA code : OMA


KOMA - Eppley

CURRENT METAR :
  • 271352Z 00000KT 9SM R14R/4000VP6000FT BCFG CLR M03/M03 A3024 RMK AO2 SLP252 FG ALONG RIVER NE-SE I1000 T10281033

EXPIRED METARs :
  • 271252Z 00000KT 10SM CLR M03/M04 A3023 RMK AO2 SLP246 I1000 T10331044
  • 271152Z 00000KT 10SM BCFG CLR M03/M04 A3021 RMK AO2 SLP239 I1001 I6002 T10331039 11017 21039 53011

TAF KOMA
Valid from the 27 at 12:00 until the 28 at 12:00 UTC


271128Z 2712/2812 33003KT P6SM SKC
FM271600 31010KT P6SM SKC
FM272300 22005KT P6SM SKC
KZMP FIR / North America



MET'MAP, your aeronautical weather chart ! - Copyright ORBIFLY December 2007 - Disclaimer

ORBIFLY MET'MAP TEAM :

Programming & Development : Alexandra Zaïnal
Concept & original design : Baudouin d'Aumeries
Assistance for programming : Marc-Olivier Méhu
Technical & hardware support : Manuel Goepfert

Contact : metmap@orbifly.com




SOURCES & CREDITS :

   NOAA       Earth
Advisory